Impacts TAF Board
For situational awareness. Not to be used for flight planning purposes.
IDs:

KCRP - Corpus Christi Intl, TX, US

Issued at 1352 UTC 23 Sep 2020
Updated at 1716 UTC 23 Sep 2020
Potential Impact None Slight Moderate High
Time1651Z 23/18Z 23/19Z 23/20Z 23/21Z 23/22Z 23/23Z 24/00Z 24/01Z 24/02Z 24/03Z 24/04Z 24/05Z 24/06Z>>
Type OBS PRVL PRVL PRVL PRVL PRVL PRVL PRVL PRVL PRVL PRVL PRVL PRVL PRVL
VIS 10 >6 >6 >6 >6 >6 >6 >6 >6 >6 >6 >6 >6 >6
CIG -- -- -- -- -- -- -- -- -- -- -- -- -- --
Cover SCT SCT SCT SCT SCT SCT SCT SCT SCT SCT SCT SCT SCT SCT
FltCat VFR VFR VFR VFR VFR VFR VFR VFR VFR VFR VFR VFR VFR VFR
WX -- -- -- -- -- -- -- -- -- -- -- -- -- --
WDir 320 320 320 320 320 320 320 30 30 30 30 30 30 30
WSpd 9 10 10 10 10 10 10 8 8 8 8 8 8 8
WGst -- -- -- -- -- -- -- -- -- -- -- -- -- --
R13/31
XWnd 1 1 1 1 1 1 1 8 8 8 8 8 8 8
HWnd -9 -10 -10 -10 -10 -10 -10 -2 -2 -2 -2 -2 -2 -2
R17/35
XWnd -6 -6 -6 -6 -6 -6 -6 4 4 4 4 4 4 4
HWnd -7 -8 -8 -8 -8 -8 -8 -7 -7 -7 -7 -7 -7 -7
Raw TAF
KCRP 231352Z 2314/2412 32010KT P6SM SCT017
  FM240000 03008KT P6SM SCT040


Raw METAR
KCRP 231651Z 32009KT 10SM SCT022 28/22 A2992 RMK AO2 SLP129 T02780217
KCRP 231551Z 33009KT 10SM FEW019 SCT024 27/21 A2992 RMK AO2 SLP130 T02670211
KCRP 231451Z 33010KT 10SM SCT018 SCT022 26/21 A2991 RMK AO2 SLP128 T02560211 51010
KCRP 231448Z 34010KT 10SM SCT018 BKN022 26/21 A2991 RMK AO2 BKN V SCT

METAR Board
Radar Display
Forecast Discussion
For situational awareness. Not to be used for flight planning purposes.